Time;durP1;ratioP1;P1;durP2;ratioP2;P2;SDS_P1;SDS_P2;PMS_P1;PMS_P2;Temp;Humidity;BMP_temperature;BMP_pressure;BME280_temperature;BME280_humidity;BME280_pressure;Samples;Min_cycle;Max_cycle;Signal;HPM_P1;HPM_P2
2022/10/20 00:02:36;;;;;;;11.95;7.47;;;15.80;99.90;;;;;;1943799;72;22259;-85
2022/10/20 00:05:28;;;;;;;14.13;6.20;;;15.80;99.90;;;;;;1921829;73;21120;-84
2022/10/20 00:08:19;;;;;;;11.10;5.00;;;15.90;99.90;;;;;;1917751;75;21067;-85
2022/10/20 00:13:53;;;;;;;10.25;4.75;;;15.90;99.90;;;;;;1944585;72;22197;-84
2022/10/20 00:16:44;;;;;;;15.25;4.65;;;15.90;99.90;;;;;;1923690;73;21160;-84
2022/10/20 00:22:16;;;;;;;10.48;4.60;;;15.80;99.90;;;;;;1940965;72;22618;-84
2022/10/20 00:27:47;;;;;;;12.05;6.08;;;15.80;99.90;;;;;;1969192;72;22253;-84
2022/10/20 00:30:39;;;;;;;9.63;5.12;;;15.90;99.90;;;;;;1930211;73;21126;-84
2022/10/20 00:36:15;;;;;;;11.60;5.10;;;15.90;99.90;;;;;;1936891;72;22130;-84
2022/10/20 00:41:46;;;;;;;8.85;4.50;;;15.90;99.90;;;;;;1937340;72;22129;-84
2022/10/20 00:47:49;;;;;;;9.28;4.70;;;15.90;99.90;;;;;;1935701;72;22175;-84
2022/10/20 00:50:43;;;;;;;11.45;4.25;;;15.80;99.90;;;;;;1894167;75;21066;-85
2022/10/20 00:56:14;;;;;;;8.93;3.83;;;15.70;99.90;;;;;;1940814;72;22126;-84
2022/10/20 00:59:06;;;;;;;6.97;3.37;;;15.80;99.90;;;;;;1890766;75;21229;-85
2022/10/20 01:01:59;;;;;;;7.40;3.75;;;15.70;99.90;;;;;;1896163;75;21059;-86
2022/10/20 01:07:33;;;;;;;8.30;4.20;;;15.80;99.90;;;;;;1925848;72;22082;-84
2022/10/20 01:10:30;;;;;;;11.60;3.45;;;15.80;99.90;;;;;;1884940;75;21062;-84
2022/10/20 01:13:25;;;;;;;9.05;3.60;;;15.80;99.90;;;;;;1872199;75;21098;-83
2022/10/20 01:16:20;;;;;;;9.08;4.15;;;15.90;99.90;;;;;;1878450;75;21096;-85
2022/10/20 01:22:05;;;;;;;9.13;4.20;;;15.90;99.90;;;;;;1948478;72;22612;-84
2022/10/20 01:25:07;;;;;;;8.80;3.60;;;15.90;99.90;;;;;;1920986;73;21143;-84
2022/10/20 01:30:42;;;;;;;12.78;3.85;;;15.90;99.90;;;;;;1936000;72;22209;-84
2022/10/20 01:36:17;;;;;;;9.80;3.80;;;15.90;99.90;;;;;;1947220;72;23443;-84
2022/10/20 01:41:50;;;;;;;8.93;2.90;;;15.80;99.90;;;;;;1948279;72;22174;-84
2022/10/20 01:47:24;;;;;;;8.90;3.62;;;15.80;99.90;;;;;;1940672;72;22157;-84
2022/10/20 01:50:17;;;;;;;12.23;4.10;;;15.80;99.90;;;;;;1884768;75;21136;-86
2022/10/20 01:53:09;;;;;;;12.75;3.85;;;15.70;99.90;;;;;;1865466;76;21055;-85
2022/10/20 01:56:03;;;;;;;11.85;3.50;;;15.70;99.90;;;;;;1903743;75;21244;-85
2022/10/20 01:59:19;;;;;;;9.43;3.85;;;15.70;99.90;;;;;;1890389;75;21143;-84
2022/10/20 02:02:37;;;;;;;9.98;3.75;;;15.70;99.90;;;;;;1887185;75;21091;-85
2022/10/20 02:05:47;;;;;;;7.55;3.40;;;15.60;99.90;;;;;;1905824;75;21060;-84
2022/10/20 02:11:24;;;;;;;9.58;3.60;;;15.40;99.90;;;;;;1940079;72;22143;-83
2022/10/20 02:17:07;;;;;;;11.97;3.72;;;15.40;99.90;;;;;;1946222;72;22148;-84
2022/10/20 02:22:40;;;;;;;9.50;3.92;;;15.30;99.90;;;;;;1942309;72;22742;-83
2022/10/20 02:25:33;;;;;;;6.47;3.20;;;15.40;99.90;;;;;;1891073;74;21119;-83
2022/10/20 02:28:26;;;;;;;11.68;4.25;;;15.40;99.90;;;;;;1891961;75;21060;-83
2022/10/20 02:31:19;;;;;;;7.55;3.12;;;15.30;99.90;;;;;;1895698;75;21546;-84
2022/10/20 02:34:11;;;;;;;9.78;4.28;;;15.30;99.90;;;;;;1892191;75;21165;-85
2022/10/20 02:37:02;;;;;;;10.90;3.62;;;15.30;99.90;;;;;;1892953;75;21185;-84
2022/10/20 02:39:54;;;;;;;6.33;3.35;;;15.30;99.90;;;;;;1880450;75;21145;-84
2022/10/20 02:42:45;;;;;;;9.48;3.33;;;15.20;99.90;;;;;;1896759;75;21094;-84
2022/10/20 02:45:37;;;;;;;8.50;3.95;;;15.30;99.90;;;;;;1885112;75;21162;-85
2022/10/20 02:48:28;;;;;;;7.08;3.47;;;15.30;99.90;;;;;;1886029;75;21035;-85
2022/10/20 02:51:19;;;;;;;8.58;3.58;;;15.20;99.90;;;;;;1899545;75;21101;-85
2022/10/20 02:56:50;;;;;;;10.95;3.47;;;15.20;99.90;;;;;;1943824;72;22094;-84
2022/10/20 02:59:41;;;;;;;9.55;3.25;;;15.20;99.90;;;;;;1879207;75;21614;-83
2022/10/20 03:02:32;;;;;;;12.00;3.50;;;15.10;99.90;;;;;;1893897;75;21097;-83
2022/10/20 03:05:25;;;;;;;7.28;2.92;;;15.00;99.90;;;;;;1873985;75;21168;-86
2022/10/20 03:08:17;;;;;;;5.55;3.15;;;15.00;99.90;;;;;;1873030;75;21137;-84
2022/10/20 03:11:09;;;;;;;13.60;4.05;;;15.00;99.90;;;;;;1871930;75;21055;-85
2022/10/20 03:16:39;;;;;;;7.22;3.70;;;15.00;99.90;;;;;;1931675;72;22240;-84
2022/10/20 03:22:10;;;;;;;7.12;3.72;;;14.80;99.90;;;;;;1952306;72;22206;-83
2022/10/20 03:25:01;;;;;;;14.05;4.05;;;14.80;99.90;;;;;;1945354;73;21090;-85
2022/10/20 03:27:52;;;;;;;7.65;3.42;;;14.80;99.90;;;;;;1917615;73;21055;-84
2022/10/20 03:30:45;;;;;;;8.28;3.58;;;14.80;99.90;;;;;;1916777;74;21057;-84
2022/10/20 03:36:21;;;;;;;9.15;3.95;;;14.80;99.90;;;;;;1918422;72;27976;-83
2022/10/20 03:39:12;;;;;;;10.13;3.95;;;15.00;99.90;;;;;;1887515;75;21061;-84
2022/10/20 03:42:04;;;;;;;7.17;3.62;;;15.00;99.90;;;;;;1891196;75;21123;-83
2022/10/20 03:47:35;;;;;;;9.40;3.15;;;15.00;99.90;;;;;;1947285;72;22229;-84
2022/10/20 03:50:26;;;;;;;13.90;3.90;;;15.00;99.90;;;;;;1880426;75;21184;-85
2022/10/20 03:53:18;;;;;;;9.18;3.77;;;15.10;99.90;;;;;;1897788;75;21050;-85
2022/10/20 03:56:11;;;;;;;9.43;3.35;;;15.10;99.90;;;;;;1895425;75;21112;-84
2022/10/20 03:59:02;;;;;;;9.10;3.25;;;15.20;99.90;;;;;;1892337;75;21167;-84
2022/10/20 04:01:53;;;;;;;8.55;3.80;;;15.30;99.90;;;;;;1884384;75;21175;-84
2022/10/20 04:07:25;;;;;;;9.00;3.70;;;15.40;99.90;;;;;;1941614;72;22192;-84
2022/10/20 04:10:18;;;;;;;8.95;3.60;;;15.30;99.90;;;;;;1901925;75;21114;-85
2022/10/20 04:13:09;;;;;;;9.05;3.35;;;15.30;99.90;;;;;;1897766;75;21163;-84
2022/10/20 04:18:40;;;;;;;9.93;3.75;;;15.40;99.90;;;;;;1947625;72;22132;-83
2022/10/20 04:21:31;;;;;;;11.08;3.87;;;15.40;99.90;;;;;;1898588;75;21173;-83
2022/10/20 04:27:02;;;;;;;8.55;3.75;;;15.30;99.90;;;;;;1934804;72;22762;-84
2022/10/20 04:29:53;;;;;;;12.55;3.70;;;15.30;99.90;;;;;;1889573;75;21194;-83
2022/10/20 04:32:44;;;;;;;9.93;3.12;;;15.40;99.90;;;;;;1905284;75;21084;-83
2022/10/20 04:35:36;;;;;;;9.40;3.92;;;15.40;99.90;;;;;;1884687;75;21139;-84
2022/10/20 04:38:29;;;;;;;8.55;3.22;;;15.40;99.90;;;;;;1893609;75;21062;-85
2022/10/20 04:41:20;;;;;;;6.65;3.37;;;15.30;99.90;;;;;;1871382;75;21050;-85
2022/10/20 04:44:11;;;;;;;9.93;3.30;;;15.30;99.90;;;;;;1897317;75;21224;-85
2022/10/20 04:47:03;;;;;;;7.87;3.00;;;15.30;99.90;;;;;;1884866;75;21147;-84
2022/10/20 04:52:33;;;;;;;12.80;3.70;;;15.30;99.90;;;;;;1933566;72;22106;-84
2022/10/20 04:55:25;;;;;;;10.08;4.00;;;15.30;99.90;;;;;;1898982;74;21509;-84
2022/10/20 04:58:19;;;;;;;11.75;3.77;;;15.30;99.90;;;;;;1888217;75;21059;-84
2022/10/20 05:01:11;;;;;;;9.65;3.80;;;15.30;99.90;;;;;;1871060;76;21180;-84
2022/10/20 05:04:03;;;;;;;9.95;3.67;;;15.40;99.90;;;;;;1891456;75;21108;-84
2022/10/20 05:06:54;;;;;;;9.55;3.80;;;15.30;99.90;;;;;;1893652;75;21567;-84
2022/10/20 05:09:48;;;;;;;11.68;4.35;;;15.30;99.90;;;;;;1900556;75;21090;-83
2022/10/20 05:12:40;;;;;;;9.33;3.90;;;15.30;99.90;;;;;;1884520;75;21129;-84
2022/10/20 05:15:31;;;;;;;11.90;3.70;;;15.40;99.90;;;;;;1887774;75;21088;-84
2022/10/20 05:18:24;;;;;;;8.30;3.85;;;15.30;99.90;;;;;;1884688;75;21686;-85
2022/10/20 05:21:18;;;;;;;13.10;4.55;;;15.30;99.90;;;;;;1885569;75;21080;-85
2022/10/20 05:26:49;;;;;;;12.53;3.72;;;15.30;99.90;;;;;;1933880;72;22179;-85
2022/10/20 05:32:19;;;;;;;11.22;4.40;;;15.30;99.90;;;;;;1962209;72;22593;-86
2022/10/20 05:35:11;;;;;;;9.95;4.10;;;15.30;99.90;;;;;;1916723;74;21125;-86
2022/10/20 05:38:02;;;;;;;8.45;3.67;;;15.30;99.90;;;;;;1905234;75;21072;-85
2022/10/20 05:40:54;;;;;;;8.05;3.87;;;15.30;99.90;;;;;;1909577;74;21128;-85
2022/10/20 05:46:41;;;;;;;13.03;3.87;;;15.30;99.90;;;;;;1959224;72;22134;-86
2022/10/20 05:49:32;;;;;;;10.38;4.33;;;15.40;99.90;;;;;;1923519;74;21434;-86
2022/10/20 05:52:24;;;;;;;10.55;4.42;;;15.40;99.90;;;;;;1917816;73;21154;-85
2022/10/20 05:55:16;;;;;;;10.88;4.80;;;15.40;99.90;;;;;;1925171;73;21098;-84
2022/10/20 06:00:51;;;;;;;11.63;4.62;;;15.40;99.90;;;;;;1934389;72;22115;-86
2022/10/20 06:03:41;;;;;;;10.15;4.62;;;15.40;99.90;;;;;;1885859;75;21162;-86
2022/10/20 06:06:33;;;;;;;10.13;4.65;;;15.40;99.90;;;;;;1872907;75;21121;-85
2022/10/20 06:09:25;;;;;;;10.10;3.83;;;15.40;99.90;;;;;;1887980;75;21068;-85
2022/10/20 06:12:16;;;;;;;10.63;3.87;;;15.40;99.90;;;;;;1897194;75;21162;-85
2022/10/20 06:15:10;;;;;;;12.00;4.50;;;15.40;99.90;;;;;;1888458;75;21118;-84
2022/10/20 06:18:01;;;;;;;15.13;4.05;;;15.40;99.90;;;;;;1886822;75;21024;-85
2022/10/20 06:21:04;;;;;;;9.83;4.70;;;15.40;99.90;;;;;;1886574;75;21129;-84
2022/10/20 06:26:37;;;;;;;10.38;4.60;;;15.40;99.90;;;;;;1948485;72;22281;-85
2022/10/20 06:29:29;;;;;;;12.40;4.80;;;15.50;99.90;;;;;;1928707;73;21171;-86
2022/10/20 06:32:20;;;;;;;10.55;4.85;;;15.50;99.90;;;;;;1915990;73;21055;-87
2022/10/20 06:37:52;;;;;;;13.62;5.03;;;15.50;99.90;;;;;;1950323;72;22210;-84
2022/10/20 06:43:26;;;;;;;10.53;5.05;;;15.50;99.90;;;;;;1944057;72;22226;-87
2022/10/20 06:46:18;;;;;;;9.05;4.80;;;15.50;99.90;;;;;;1906220;75;21109;-85
2022/10/20 06:49:11;;;;;;;9.45;5.35;;;15.50;99.90;;;;;;1891453;75;21554;-86
2022/10/20 06:52:03;;;;;;;12.25;4.85;;;15.60;99.90;;;;;;1916108;75;21165;-85
2022/10/20 06:57:33;;;;;;;11.48;4.72;;;15.70;99.90;;;;;;1931850;72;22308;-84
2022/10/20 07:00:24;;;;;;;9.58;5.87;;;15.80;99.90;;;;;;1906748;75;21059;-84
2022/10/20 07:03:15;;;;;;;13.43;5.00;;;15.80;99.90;;;;;;1899981;75;21051;-84
2022/10/20 07:06:08;;;;;;;19.23;11.80;;;15.90;99.90;;;;;;1890625;75;21110;-84
2022/10/20 07:11:37;;;;;;;10.13;4.55;;;15.90;99.90;;;;;;1934022;72;22167;-85
2022/10/20 07:14:28;;;;;;;11.65;4.53;;;16.00;99.90;;;;;;1917583;75;21121;-84
2022/10/20 07:17:21;;;;;;;10.95;4.87;;;16.00;99.90;;;;;;1896140;75;21066;-85
2022/10/20 07:20:12;;;;;;;14.03;4.95;;;16.00;99.90;;;;;;1910217;75;21047;-84
2022/10/20 07:23:03;;;;;;;11.97;4.92;;;16.10;99.90;;;;;;1910929;75;21134;-86
2022/10/20 07:26:01;;;;;;;12.82;4.62;;;16.10;99.90;;;;;;1894292;75;21539;-84
2022/10/20 07:28:53;;;;;;;12.50;5.50;;;16.10;99.90;;;;;;1884548;75;21083;-85
2022/10/20 07:31:47;;;;;;;11.93;4.90;;;16.10;99.90;;;;;;1893392;75;21113;-85
2022/10/20 07:34:38;;;;;;;12.30;5.33;;;16.20;99.90;;;;;;1897714;75;21051;-85
2022/10/20 07:37:29;;;;;;;10.88;5.10;;;16.10;99.90;;;;;;1898955;75;21110;-84
2022/10/20 07:40:21;;;;;;;11.28;5.40;;;16.10;99.90;;;;;;1906776;75;21055;-85
2022/10/20 07:43:11;;;;;;;15.08;5.60;;;16.20;99.90;;;;;;1906618;75;21156;-85
2022/10/20 07:46:03;;;;;;;12.98;5.33;;;16.20;99.90;;;;;;1909766;75;21126;-84
2022/10/20 07:48:54;;;;;;;10.63;5.42;;;16.20;99.90;;;;;;1915418;75;21063;-84
2022/10/20 07:51:47;;;;;;;15.20;5.08;;;16.40;99.90;;;;;;1884658;75;21117;-85
2022/10/20 07:54:38;;;;;;;11.05;5.20;;;16.50;99.90;;;;;;1889955;75;21055;-86
2022/10/20 07:57:29;;;;;;;12.28;5.50;;;16.50;99.90;;;;;;1885314;75;21461;-84
2022/10/20 08:00:20;;;;;;;9.98;5.83;;;16.40;99.90;;;;;;1890347;75;21070;-85
2022/10/20 08:03:12;;;;;;;13.85;5.72;;;16.40;99.90;;;;;;1910598;75;21095;-86
2022/10/20 08:06:03;;;;;;;12.03;6.00;;;16.40;99.90;;;;;;1905554;75;21062;-85
2022/10/20 08:11:34;;;;;;;11.70;5.37;;;16.40;99.90;;;;;;1943068;72;22172;-86
2022/10/20 08:14:26;;;;;;;11.45;5.80;;;16.50;99.90;;;;;;1922863;73;21047;-85
2022/10/20 08:17:17;;;;;;;14.18;6.78;;;16.50;99.90;;;;;;1917609;75;21105;-85
2022/10/20 08:20:11;;;;;;;14.13;5.85;;;16.50;99.90;;;;;;1932626;73;21608;-85
2022/10/20 08:23:21;;;;;;;19.92;6.25;;;16.60;99.90;;;;;;1921015;73;21171;-85
2022/10/20 08:26:13;;;;;;;16.35;6.42;;;16.60;99.90;;;;;;1917832;75;21097;-85
2022/10/20 08:29:07;;;;;;;16.00;6.40;;;16.60;99.90;;;;;;1917751;75;21096;-84
2022/10/20 08:31:58;;;;;;;13.70;6.95;;;16.70;99.90;;;;;;1917467;75;21030;-85
2022/10/20 08:37:30;;;;;;;13.62;6.05;;;16.90;99.90;;;;;;1951549;72;22146;-83
2022/10/20 08:40:24;;;;;;;14.60;6.22;;;17.00;99.90;;;;;;1941063;73;21126;-85
2022/10/20 08:43:18;;;;;;;17.67;6.42;;;17.00;99.90;;;;;;1917565;75;21491;-84
2022/10/20 08:48:52;;;;;;;32.93;7.28;;;17.10;99.90;;;;;;1952445;72;22125;-86
2022/10/20 08:51:43;;;;;;;37.83;9.48;;;17.10;99.90;;;;;;1917636;75;21522;-84
2022/10/20 08:54:35;;;;;;;16.07;6.90;;;17.10;99.90;;;;;;1918664;73;21095;-85
2022/10/20 08:57:30;;;;;;;22.67;8.98;;;17.20;99.90;;;;;;1939874;73;21129;-85
2022/10/20 09:00:25;;;;;;;25.30;9.70;;;17.30;99.90;;;;;;1936566;73;21120;-85
2022/10/20 09:03:21;;;;;;;24.52;9.28;;;17.20;99.90;;;;;;1924406;73;21518;-85
2022/10/20 09:06:15;;;;;;;31.45;9.73;;;17.30;99.90;;;;;;1921944;73;21147;-85
2022/10/20 09:22:31;;;;;;;15.30;8.28;;;17.50;99.90;;;;;;1939969;72;26856;-84
2022/10/20 09:25:26;;;;;;;15.08;8.30;;;17.50;99.90;;;;;;1903870;75;21110;-85
2022/10/20 09:28:25;;;;;;;17.48;8.90;;;17.50;99.90;;;;;;1897847;75;21052;-84
2022/10/20 09:31:25;;;;;;;17.70;8.73;;;17.50;99.90;;;;;;1910785;75;21574;-84
2022/10/20 09:37:04;;;;;;;16.35;9.95;;;17.60;99.90;;;;;;1924468;72;28102;-84
2022/10/20 09:39:58;;;;;;;15.88;8.23;;;17.80;99.90;;;;;;1904176;74;21509;-84
2022/10/20 09:42:53;;;;;;;13.43;8.25;;;17.80;99.90;;;;;;1907684;75;21183;-86
2022/10/20 09:48:35;;;;;;;15.23;7.83;;;17.80;99.90;;;;;;1934863;72;22150;-85
2022/10/20 09:51:28;;;;;;;17.52;8.40;;;17.80;99.90;;;;;;1886935;75;21091;-84
2022/10/20 09:57:05;;;;;;;17.60;9.60;;;17.90;99.90;;;;;;1939732;72;22268;-85
2022/10/20 10:02:36;;;;;;;15.23;8.10;;;18.10;99.90;;;;;;1932455;72;22233;-84
2022/10/20 10:08:09;;;;;;;18.82;10.98;;;18.10;99.90;;;;;;1934200;74;22361;-85
2022/10/20 10:11:03;;;;;;;16.00;9.60;;;18.20;99.90;;;;;;1899255;75;21536;-85
2022/10/20 10:16:44;;;;;;;16.35;9.18;;;18.50;99.90;;;;;;1944894;72;22202;-84
2022/10/20 10:19:36;;;;;;;15.20;8.43;;;18.50;99.90;;;;;;1903650;74;21204;-84
2022/10/20 10:22:27;;;;;;;14.75;7.65;;;18.50;99.90;;;;;;1904943;75;21058;-86
2022/10/20 10:28:03;;;;;;;15.32;8.78;;;18.50;99.90;;;;;;1946433;72;22274;-86
2022/10/20 10:31:09;;;;;;;14.18;8.15;;;18.50;99.90;;;;;;1900091;74;21191;-85
2022/10/20 10:36:50;;;;;;;16.27;8.93;;;18.30;99.90;;;;;;1959603;72;22208;-85
2022/10/20 10:39:42;;;;;;;21.62;10.35;;;18.30;99.90;;;;;;1920437;74;21254;-85
2022/10/20 10:42:52;;;;;;;21.90;11.43;;;18.30;99.90;;;;;;1904404;75;21166;-85
2022/10/20 10:45:47;;;;;;;16.82;10.72;;;18.40;99.90;;;;;;1899389;75;21136;-85
2022/10/20 10:54:39;;;;;;;20.12;10.15;;;18.20;99.90;;;;;;1949242;72;22133;-86
2022/10/20 10:57:35;;;;;;;19.52;10.10;;;18.20;99.90;;;;;;1944402;73;21054;-86
2022/10/20 11:00:35;;;;;;;14.38;8.90;;;18.20;99.90;;;;;;1919130;73;21142;-85
2022/10/20 11:03:46;;;;;;;22.48;10.60;;;18.20;99.90;;;;;;1929956;73;21514;-85
2022/10/20 11:09:22;;;;;;;14.63;8.28;;;18.10;99.90;;;;;;1943373;72;22157;-85
2022/10/20 11:12:26;;;;;;;15.53;8.03;;;18.10;99.90;;;;;;1933868;73;21057;-85
2022/10/20 11:15:25;;;;;;;11.85;7.50;;;18.10;99.90;;;;;;1917525;75;21203;-85
2022/10/20 11:18:20;;;;;;;14.95;7.92;;;18.10;99.90;;;;;;1927014;73;21171;-85
2022/10/20 11:21:20;;;;;;;18.67;9.93;;;18.10;99.90;;;;;;1925059;73;21054;-85
2022/10/20 11:24:20;;;;;;;14.10;8.38;;;18.10;99.90;;;;;;1926377;73;21055;-85
2022/10/20 11:27:14;;;;;;;17.75;8.28;;;18.20;99.90;;;;;;1917309;73;21181;-85
2022/10/20 11:30:15;;;;;;;20.88;8.03;;;18.20;99.90;;;;;;1923347;73;21179;-85
2022/10/20 11:38:34;;;;;;;11.70;7.05;;;18.40;99.90;;;;;;1945203;72;22141;-84
2022/10/20 11:44:08;;;;;;;13.53;7.60;;;18.50;99.90;;;;;;1949289;72;22153;-84
2022/10/20 11:47:03;;;;;;;14.23;8.03;;;18.50;99.90;;;;;;1897370;75;21063;-84
2022/10/20 11:56:20;;;;;;;13.25;7.15;;;18.60;99.90;;;;;;1951691;72;22134;-85
2022/10/20 11:59:22;;;;;;;13.13;6.67;;;18.60;99.90;;;;;;1889567;74;21121;-85
2022/10/20 12:02:38;;;;;;;14.60;6.33;;;18.60;99.90;;;;;;1913965;75;21160;-85
2022/10/20 12:06:04;;;;;;;12.23;6.95;;;18.50;99.90;;;;;;1913923;75;21107;-85
2022/10/20 12:09:05;;;;;;;10.00;5.97;;;18.40;99.90;;;;;;1864421;75;21077;-85
2022/10/20 12:12:01;;;;;;;13.30;6.47;;;18.20;99.90;;;;;;1891963;75;21140;-84
2022/10/20 12:14:56;;;;;;;16.60;6.50;;;18.20;99.90;;;;;;1889171;75;21058;-86
2022/10/20 12:17:48;;;;;;;11.05;6.22;;;18.10;99.90;;;;;;1910147;75;21158;-85
2022/10/20 12:20:55;;;;;;;11.20;5.62;;;18.10;99.90;;;;;;1906471;75;21207;-85
2022/10/20 12:26:43;;;;;;;12.50;5.97;;;18.00;99.90;;;;;;1941190;72;22307;-84
2022/10/20 12:30:27;;;;;;;12.40;6.25;;;17.90;99.90;;;;;;1901186;75;21553;-84
2022/10/20 12:33:21;;;;;;;11.73;5.67;;;17.90;99.90;;;;;;1907282;73;21183;-85
2022/10/20 12:36:45;;;;;;;14.30;6.10;;;17.80;99.90;;;;;;1913663;75;21038;-85
2022/10/20 12:39:37;;;;;;;13.72;5.53;;;17.80;99.90;;;;;;1891704;73;21107;-84
2022/10/20 12:42:33;;;;;;;18.02;5.97;;;17.80;99.90;;;;;;1917613;75;21026;-85
2022/10/20 12:45:31;;;;;;;14.43;6.60;;;18.10;99.90;;;;;;1901000;75;21591;-85
2022/10/20 12:48:24;;;;;;;13.15;6.42;;;18.20;99.90;;;;;;1897146;75;21105;-85
2022/10/20 12:51:24;;;;;;;11.22;6.35;;;18.30;99.90;;;;;;1903085;73;21033;-86
2022/10/20 12:54:23;;;;;;;11.93;5.85;;;18.40;99.90;;;;;;1893331;73;21031;-84
2022/10/20 13:00:51;;;;;;;13.85;6.62;;;18.50;99.90;;;;;;1951181;72;22276;-85
2022/10/20 13:03:52;;;;;;;13.15;6.28;;;18.50;99.90;;;;;;1915364;73;21239;-85
2022/10/20 13:06:46;;;;;;;12.70;6.15;;;18.60;99.90;;;;;;1951570;73;21066;-85
2022/10/20 13:09:56;;;;;;;14.10;6.30;;;18.60;99.90;;;;;;1917651;75;21080;-85
2022/10/20 13:12:49;;;;;;;13.55;6.58;;;18.60;99.90;;;;;;1932297;73;21094;-85
2022/10/20 13:15:46;;;;;;;18.95;6.85;;;18.60;99.90;;;;;;1941724;73;21486;-85
2022/10/20 13:18:40;;;;;;;14.58;6.83;;;18.70;99.90;;;;;;1917667;75;21055;-85
2022/10/20 13:21:33;;;;;;;12.30;6.80;;;18.90;99.90;;;;;;1917670;75;21051;-85
2022/10/20 13:24:28;;;;;;;9.80;4.72;;;19.00;99.90;;;;;;1917645;75;21047;-87
2022/10/20 13:27:21;;;;;;;15.63;6.83;;;19.10;99.90;;;;;;1917745;75;21086;-87
2022/10/20 13:30:21;;;;;;;12.55;6.85;;;19.30;99.90;;;;;;1917956;75;21056;-85
2022/10/20 13:33:16;;;;;;;11.60;5.55;;;19.40;99.90;;;;;;1917605;73;21216;-85
2022/10/20 13:36:14;;;;;;;17.77;7.80;;;19.50;99.90;;;;;;1917509;73;21104;-85
2022/10/20 13:39:08;;;;;;;14.73;4.80;;;19.70;99.90;;;;;;1917327;75;21229;-85
2022/10/20 13:42:04;;;;;;;10.32;4.00;;;19.80;99.90;;;;;;1917619;75;21054;-85
2022/10/20 13:45:00;;;;;;;10.18;4.00;;;20.00;99.90;;;;;;1917747;75;21059;-85
2022/10/20 13:47:57;;;;;;;14.60;3.80;;;20.20;99.90;;;;;;1925058;73;21058;-86
2022/10/20 13:50:51;;;;;;;12.07;3.62;;;20.40;99.90;;;;;;1925571;73;21103;-85
2022/10/20 13:53:46;;;;;;;9.98;2.90;;;20.60;99.90;;;;;;1917825;75;21638;-86
2022/10/20 13:56:40;;;;;;;10.08;2.87;;;20.80;99.90;;;;;;1917634;75;21124;-85
2022/10/20 13:59:32;;;;;;;11.12;3.00;;;21.00;99.90;;;;;;1912519;74;21132;-85
2022/10/20 14:02:27;;;;;;;12.78;3.70;;;21.20;99.90;;;;;;1903129;75;21118;-87
2022/10/20 14:05:21;;;;;;;11.78;2.80;;;21.40;99.90;;;;;;1925842;74;21084;-86
2022/10/20 14:08:15;;;;;;;10.32;2.85;;;21.50;99.90;;;;;;1913916;74;21066;-85
2022/10/20 14:11:10;;;;;;;14.50;2.72;;;21.70;99.90;;;;;;1916330;74;21109;-85
2022/10/20 14:14:02;;;;;;;12.70;3.05;;;21.70;99.90;;;;;;1926353;74;21145;-86
2022/10/20 14:16:57;;;;;;;13.45;2.87;;;21.90;99.90;;;;;;1902529;74;21123;-86
2022/10/20 14:19:48;;;;;;;12.13;3.50;;;22.00;99.90;;;;;;1918210;74;21109;-86
2022/10/20 14:22:43;;;;;;;11.90;3.17;;;22.10;99.90;;;;;;1913901;74;21213;-85
2022/10/20 14:25:35;;;;;;;8.95;3.22;;;22.10;99.90;;;;;;1911194;74;21228;-87
2022/10/20 14:28:29;;;;;;;11.18;3.00;;;22.00;99.90;;;;;;1910181;74;21102;-85
2022/10/20 14:31:23;;;;;;;12.05;3.30;;;22.00;99.90;;;;;;1910333;74;21098;-85
2022/10/20 14:34:21;;;;;;;12.78;2.70;;;22.00;99.90;;;;;;1912362;74;21130;-86
2022/10/20 14:37:15;;;;;;;;;;;22.00;99.90;;;;;;1905408;75;21066;-85
2022/10/20 14:40:10;;;;;;;12.73;3.25;;;22.00;99.90;;;;;;1918531;74;20146;-85
2022/10/20 14:43:07;;;;;;;12.40;3.40;;;22.10;99.90;;;;;;1906954;74;21124;-85
2022/10/20 14:46:01;;;;;;;13.30;2.62;;;22.20;99.90;;;;;;1911156;74;21067;-86
2022/10/20 14:48:52;;;;;;;9.63;2.83;;;22.40;99.90;;;;;;1915599;74;21062;-86
2022/10/20 14:51:47;;;;;;;9.00;3.25;;;22.40;99.90;;;;;;1917479;74;21154;-85
2022/10/20 14:54:39;;;;;;;11.93;2.62;;;22.50;99.90;;;;;;1902783;74;21079;-86
2022/10/20 14:57:41;;;;;;;12.28;3.25;;;22.60;99.90;;;;;;1924677;74;21126;-85
2022/10/20 15:00:37;;;;;;;10.00;2.70;;;22.60;99.90;;;;;;1903181;74;21083;-86
2022/10/20 15:03:28;;;;;;;8.93;2.50;;;22.60;99.90;;;;;;1904604;75;21128;-85
2022/10/20 15:06:26;;;;;;;12.15;2.70;;;22.60;99.90;;;;;;1883175;75;21127;-85
2022/10/20 15:09:24;;;;;;;13.75;3.20;;;22.60;99.90;;;;;;1904627;75;21059;-86
2022/10/20 15:12:22;;;;;;;12.10;2.50;;;22.60;99.90;;;;;;1904479;75;21115;-86
2022/10/20 15:15:23;;;;;;;9.63;2.52;;;22.60;99.90;;;;;;1904663;75;21059;-86
2022/10/20 15:18:18;;;;;;;10.88;3.40;;;22.60;99.90;;;;;;1917193;75;21051;-86
2022/10/20 15:21:12;;;;;;;11.53;2.67;;;22.60;99.90;;;;;;1916998;75;21059;-86
2022/10/20 15:24:27;;;;;;;9.48;2.42;;;22.60;99.90;;;;;;1916735;75;21123;-85
2022/10/20 15:27:34;;;;;;;9.85;2.92;;;22.60;99.90;;;;;;1929700;73;21173;-85
2022/10/20 15:30:28;;;;;;;;;;;22.70;99.90;;;;;;1907572;75;21574;-86
2022/10/20 15:33:21;;;;;;;12.03;2.60;;;22.50;99.90;;;;;;1904872;75;20119;-85
2022/10/20 15:36:15;;;;;;;8.60;2.45;;;22.40;99.90;;;;;;1888053;75;21082;-87
2022/10/20 15:39:29;;;;;;;11.90;2.90;;;22.40;99.90;;;;;;1916902;75;21114;-86
2022/10/20 15:42:44;;;;;;;12.20;2.72;;;22.40;99.90;;;;;;1935575;73;21051;-85
2022/10/20 15:45:57;;;;;;;11.22;2.90;;;22.50;99.90;;;;;;1923206;74;21059;-85
2022/10/20 15:48:49;;;;;;;14.25;3.83;;;22.40;99.90;;;;;;1911118;75;21201;-84
2022/10/20 15:51:52;;;;;;;14.60;4.80;;;22.20;99.90;;;;;;1905024;75;21063;-85
2022/10/20 15:54:44;;;;;;;15.38;5.70;;;21.90;99.90;;;;;;1904936;75;21189;-86
2022/10/20 15:57:37;;;;;;;15.75;4.97;;;21.40;99.90;;;;;;1904542;75;21105;-86
2022/10/20 16:00:30;;;;;;;15.25;4.30;;;21.10;99.90;;;;;;1904920;74;21059;-84
2022/10/20 16:03:25;;;;;;;16.70;4.62;;;20.80;99.90;;;;;;1912787;74;21142;-86
2022/10/20 16:06:20;;;;;;;12.15;4.70;;;20.60;99.90;;;;;;1884281;75;21045;-86
2022/10/20 16:09:14;;;;;;;14.20;4.55;;;20.40;99.90;;;;;;1911669;74;21188;-86
2022/10/20 16:12:22;;;;;;;12.40;4.30;;;20.30;99.90;;;;;;1911566;75;21082;-85
2022/10/20 16:15:17;;;;;;;17.77;5.87;;;20.20;99.90;;;;;;1872694;76;21122;-85
2022/10/20 16:18:12;;;;;;;9.58;4.72;;;20.20;99.90;;;;;;1902361;75;21059;-85
2022/10/20 16:21:06;;;;;;;14.73;5.15;;;20.20;99.90;;;;;;1902360;75;21165;-86
2022/10/20 16:23:59;;;;;;;17.05;6.28;;;20.00;99.90;;;;;;1915429;74;21192;-85
2022/10/20 16:26:52;;;;;;;13.50;5.55;;;19.90;99.90;;;;;;1910883;74;21200;-85
2022/10/20 16:29:46;;;;;;;13.48;6.00;;;19.80;99.90;;;;;;1910377;74;21094;-86
2022/10/20 16:32:46;;;;;;;12.53;5.03;;;19.70;99.90;;;;;;1910209;74;21101;-87
2022/10/20 16:35:44;;;;;;;11.45;5.50;;;19.50;99.90;;;;;;1895043;75;21118;-84
2022/10/20 16:38:36;;;;;;;11.05;5.70;;;19.50;99.90;;;;;;1912250;74;21105;-85
2022/10/20 16:41:29;;;;;;;15.10;5.62;;;19.40;99.90;;;;;;1903605;74;21139;-85
2022/10/20 16:44:23;;;;;;;15.15;6.08;;;19.30;99.90;;;;;;1927820;74;21107;-86
2022/10/20 16:47:15;;;;;;;13.30;6.53;;;19.10;99.90;;;;;;1914210;74;21061;-85
2022/10/20 16:50:08;;;;;;;13.08;6.95;;;19.00;99.90;;;;;;1848911;76;21064;-85
2022/10/20 16:53:01;;;;;;;17.37;6.97;;;19.00;99.90;;;;;;1935623;74;21059;-85
2022/10/20 16:55:56;;;;;;;12.23;6.37;;;19.00;99.90;;;;;;1911172;74;21043;-86
2022/10/20 16:58:50;;;;;;;13.25;5.50;;;18.90;99.90;;;;;;1908590;74;21142;-87
2022/10/20 17:01:43;;;;;;;11.95;6.53;;;18.80;99.90;;;;;;1876760;75;21199;-86
2022/10/20 17:04:37;;;;;;;15.00;5.55;;;18.80;99.90;;;;;;1904424;74;21104;-86
2022/10/20 17:07:30;;;;;;;11.28;5.20;;;18.70;99.90;;;;;;1925319;73;21168;-85
2022/10/20 17:10:38;;;;;;;10.82;6.40;;;18.70;99.90;;;;;;1910252;74;21135;-85
2022/10/20 17:13:32;;;;;;;12.73;5.12;;;18.80;99.90;;;;;;1904778;75;21056;-85
2022/10/20 17:16:28;;;;;;;13.88;5.50;;;18.70;99.90;;;;;;1936813;73;21165;-85
2022/10/20 17:19:23;;;;;;;12.10;5.20;;;18.70;99.90;;;;;;1932864;73;21051;-87
2022/10/20 17:22:14;;;;;;;11.48;6.60;;;18.70;99.90;;;;;;1917146;73;21143;-86
2022/10/20 17:25:10;;;;;;;12.75;5.08;;;18.70;99.90;;;;;;1916852;74;21160;-85
2022/10/20 17:28:06;;;;;;;11.03;5.37;;;18.60;99.90;;;;;;1904809;75;21545;-85
2022/10/20 17:31:00;;;;;;;10.95;4.92;;;18.60;99.90;;;;;;1916722;75;21074;-84
2022/10/20 17:33:55;;;;;;;14.75;5.45;;;18.50;99.90;;;;;;1906821;75;21080;-85
2022/10/20 17:36:47;;;;;;;15.05;4.85;;;18.40;99.90;;;;;;1950852;73;21106;-86
2022/10/20 17:39:41;;;;;;;12.35;5.45;;;18.40;99.90;;;;;;1915434;74;21195;-85
2022/10/20 17:42:34;;;;;;;12.43;4.62;;;18.40;99.90;;;;;;1927857;73;21181;-85
2022/10/20 17:45:32;;;;;;;14.38;5.08;;;18.40;99.90;;;;;;1871996;75;21131;-85
2022/10/20 17:48:28;;;;;;;15.70;5.62;;;18.30;99.90;;;;;;1903761;75;21064;-85